Time;durP1;ratioP1;P1;durP2;ratioP2;P2;SDS_P1;SDS_P2;PMS_P1;PMS_P2;Temp;Humidity;BMP_temperature;BMP_pressure;BME280_temperature;BME280_humidity;BME280_pressure;Samples;Min_cycle;Max_cycle;Signal;HPM_P1;HPM_P2
2022/10/08 00:00:03;;;;;;;13.65;3.67;;;;;;;12.01;79.53;101522.63;5085564;28;20028;-80
2022/10/08 00:02:28;;;;;;;8.75;3.13;;;;;;;11.90;79.49;101494.84;5067410;28;20042;-79
2022/10/08 00:04:54;;;;;;;10.48;3.58;;;;;;;12.06;79.58;101515.31;5067488;28;20036;-79
2022/10/08 00:07:19;;;;;;;9.43;3.20;;;;;;;11.99;79.53;101503.72;5067229;28;20047;-80
2022/10/08 00:09:44;;;;;;;10.85;3.28;;;;;;;12.00;79.52;101520.97;5077474;28;20067;-79
2022/10/08 00:12:10;;;;;;;11.45;2.90;;;;;;;12.09;79.49;101520.25;5063901;28;20028;-79
2022/10/08 00:14:35;;;;;;;12.15;3.97;;;;;;;12.05;79.61;101503.25;5071034;28;20033;-79
2022/10/08 00:17:00;;;;;;;12.20;3.72;;;;;;;12.11;80.12;101539.19;5066352;28;20066;-79
2022/10/08 00:19:26;;;;;;;12.63;3.70;;;;;;;12.09;80.44;101519.41;5055265;28;20101;-79
2022/10/08 00:21:55;;;;;;;9.40;3.42;;;;;;;12.09;80.32;101528.06;5067522;28;20028;-79
2022/10/08 00:24:22;;;;;;;15.68;4.07;;;;;;;12.12;80.56;101530.44;5065461;28;20561;-79
2022/10/08 00:26:48;;;;;;;11.48;3.08;;;;;;;12.19;80.54;101529.00;5072305;28;20038;-79
2022/10/08 00:29:15;;;;;;;11.68;3.40;;;;;;;12.19;80.37;101536.81;5084734;28;20030;-79
2022/10/08 00:31:43;;;;;;;10.77;3.28;;;;;;;12.13;80.75;101537.28;5062882;28;20123;-80
2022/10/08 00:34:12;;;;;;;11.52;3.13;;;;;;;12.15;80.18;101535.38;5068465;28;20138;-79
2022/10/08 00:36:39;;;;;;;10.52;3.45;;;;;;;12.17;80.84;101543.09;5086512;28;20088;-79
2022/10/08 00:39:07;;;;;;;12.68;3.97;;;;;;;12.04;81.65;101540.56;5070199;28;20067;-79
2022/10/08 00:41:37;;;;;;;11.88;3.83;;;;;;;12.16;80.80;101549.22;5089010;28;20059;-79
2022/10/08 00:44:40;;;;;;;12.25;3.72;;;;;;;12.21;81.21;101553.13;5088658;28;20468;-79
2022/10/08 00:47:15;;;;;;;9.95;3.33;;;;;;;12.16;81.60;101547.47;5070153;28;20596;-79
2022/10/08 00:49:40;;;;;;;10.75;3.65;;;;;;;12.18;82.05;101555.97;5089305;28;20054;-79
2022/10/08 00:52:06;;;;;;;10.48;3.65;;;;;;;12.21;81.79;101560.09;5070541;28;20475;-80
2022/10/08 00:54:32;;;;;;;12.50;4.25;;;;;;;12.23;82.34;101569.44;5087703;28;20395;-78
2022/10/08 00:56:57;;;;;;;12.50;4.13;;;;;;;12.15;83.33;101563.97;5088232;28;20111;-80
2022/10/08 00:59:23;;;;;;;12.65;4.22;;;;;;;12.15;83.76;101568.34;5064200;28;20044;-78
2022/10/08 01:01:48;;;;;;;13.52;4.15;;;;;;;11.92;85.34;101552.72;5081748;28;20427;-79
2022/10/08 01:04:14;;;;;;;17.23;4.68;;;;;;;11.86;86.34;101536.78;5083109;28;20036;-79
2022/10/08 01:06:49;;;;;;;14.15;4.38;;;;;;;11.99;87.08;101566.13;5084692;28;20151;-79
2022/10/08 01:09:16;;;;;;;12.77;4.35;;;;;;;11.86;88.04;101549.78;5083237;28;20046;-79
2022/10/08 01:12:09;;;;;;;14.68;4.80;;;;;;;12.02;86.62;101565.88;5066827;28;20030;-79
2022/10/08 01:15:10;;;;;;;12.15;4.90;;;;;;;12.00;88.22;101551.34;5085977;28;20036;-79
2022/10/08 01:18:06;;;;;;;13.15;4.93;;;;;;;11.94;88.65;101552.63;5062859;28;20028;-79
2022/10/08 01:21:01;;;;;;;10.88;4.45;;;;;;;11.90;88.18;101533.00;5073613;28;20085;-79
2022/10/08 01:24:04;;;;;;;12.13;5.07;;;;;;;11.96;87.91;101550.75;5083735;28;20073;-79
2022/10/08 01:26:56;;;;;;;14.52;5.40;;;;;;;11.83;89.66;101552.63;5005105;28;20041;-79
2022/10/08 01:29:34;;;;;;;13.93;5.15;;;;;;;11.80;90.23;101551.03;5003190;28;20526;-79
2022/10/08 01:32:06;;;;;;;11.38;4.60;;;;;;;11.79;90.19;101549.38;4993489;28;20037;-79
2022/10/08 01:34:46;;;;;;;11.68;4.68;;;;;;;11.82;89.71;101549.19;5003738;28;20100;-79
2022/10/08 01:37:22;;;;;;;15.35;5.45;;;;;;;11.76;90.54;101554.00;5001342;28;20057;-79
2022/10/08 01:39:52;;;;;;;12.00;4.93;;;;;;;11.73;91.57;101564.59;4993262;28;20120;-79
2022/10/08 01:42:22;;;;;;;10.73;4.72;;;;;;;11.75;90.79;101552.31;5004795;28;20046;-79
2022/10/08 01:44:52;;;;;;;11.40;5.03;;;;;;;11.69;90.77;101538.84;5004681;28;20054;-80
2022/10/08 01:47:22;;;;;;;16.50;6.78;;;;;;;11.65;91.92;101553.03;5005599;28;20033;-79
2022/10/08 01:49:54;;;;;;;10.85;5.20;;;;;;;11.67;91.17;101540.72;5005681;28;20038;-78
2022/10/08 01:52:37;;;;;;;14.18;5.95;;;;;;;11.60;92.76;101549.94;5004791;28;20034;-79
2022/10/08 01:55:07;;;;;;;13.98;5.78;;;;;;;11.61;91.78;101530.78;5005396;28;20412;-79
2022/10/08 01:57:35;;;;;;;14.32;5.95;;;;;;;11.65;91.76;101547.81;4987615;28;20466;-79
2022/10/08 02:00:10;;;;;;;12.75;5.13;;;;;;;11.62;92.63;101532.44;5018524;28;20497;-79
2022/10/08 02:02:35;;;;;;;13.57;5.43;;;;;;;11.69;92.35;101544.03;5058247;28;20101;-80
2022/10/08 02:05:03;;;;;;;12.88;5.15;;;;;;;11.65;93.28;101547.81;5087756;28;20417;-79
2022/10/08 02:07:31;;;;;;;12.23;5.32;;;;;;;11.64;93.29;101556.56;5075766;28;20484;-79
2022/10/08 02:10:13;;;;;;;14.50;5.70;;;;;;;11.61;93.81;101561.97;5080415;28;20047;-79
2022/10/08 02:12:39;;;;;;;13.40;5.95;;;;;;;11.44;93.32;101559.78;5077874;28;20070;-79
2022/10/08 02:15:07;;;;;;;14.07;5.35;;;;;;;11.52;94.08;101567.84;5073030;28;20360;-79
2022/10/08 02:17:38;;;;;;;11.38;4.85;;;;;;;11.48;94.58;101566.44;5087461;28;20549;-79
2022/10/08 02:20:29;;;;;;;9.45;4.32;;;;;;;11.45;93.98;101551.06;5081235;28;20456;-79
2022/10/08 02:23:00;;;;;;;9.27;4.00;;;;;;;11.51;94.45;101573.97;5081719;28;20043;-78
2022/10/08 02:25:32;;;;;;;9.93;4.22;;;;;;;11.53;94.28;101577.31;5066443;28;20120;-79
2022/10/08 02:28:08;;;;;;;10.32;4.35;;;;;;;11.46;94.38;101568.28;5067601;28;20032;-79
2022/10/08 02:30:42;;;;;;;9.93;4.53;;;;;;;11.40;94.52;101553.16;5061719;28;20036;-79
2022/10/08 02:33:37;;;;;;;9.68;4.13;;;;;;;11.54;94.91;101571.19;5074116;28;20024;-79
2022/10/08 02:36:07;;;;;;;13.15;4.88;;;;;;;11.34;95.09;101564.00;5056942;28;20054;-78
2022/10/08 02:38:38;;;;;;;9.20;4.38;;;;;;;11.44;94.38;101558.03;5084560;28;20044;-79
2022/10/08 02:41:07;;;;;;;12.02;4.88;;;;;;;11.40;94.74;101571.34;5083671;28;20039;-79
2022/10/08 02:43:36;;;;;;;13.82;4.55;;;;;;;11.43;94.69;101558.97;5082595;28;20385;-78
2022/10/08 02:46:15;;;;;;;9.43;4.03;;;;;;;11.47;94.11;101549.19;5064431;28;20046;-79
2022/10/08 02:48:49;;;;;;;10.00;4.55;;;;;;;11.50;93.32;101561.94;5069499;28;20024;-79
2022/10/08 02:51:17;;;;;;;8.55;4.50;;;;;;;11.41;93.56;101554.81;5080001;28;20068;-79
2022/10/08 02:53:44;;;;;;;10.77;4.72;;;;;;;11.35;94.07;101555.25;5063114;28;20027;-79
2022/10/08 02:56:25;;;;;;;10.60;4.97;;;;;;;11.38;94.65;101555.88;5068368;28;20024;-79
2022/10/08 02:58:51;;;;;;;9.52;4.38;;;;;;;11.35;93.87;101570.84;5067009;28;20036;-79
2022/10/08 03:01:47;;;;;;;10.82;5.05;;;;;;;11.37;94.79;101575.00;5086699;28;20024;-79
2022/10/08 03:04:28;;;;;;;11.65;5.97;;;;;;;11.27;94.81;101573.19;5054518;28;20426;-79
2022/10/08 03:06:55;;;;;;;9.13;5.32;;;;;;;11.24;94.22;101565.59;5081346;28;20048;-79
2022/10/08 03:09:23;;;;;;;8.57;4.03;;;;;;;11.34;94.87;101574.38;5086704;28;20086;-79
2022/10/08 03:11:50;;;;;;;11.80;5.63;;;;;;;11.30;94.78;101583.38;5080419;28;20050;-79
2022/10/08 03:14:18;;;;;;;11.60;5.25;;;;;;;11.26;95.22;101576.72;5081578;28;20055;-79
2022/10/08 03:16:46;;;;;;;10.47;5.07;;;;;;;11.19;95.86;101580.72;5080274;28;20043;-79
2022/10/08 03:19:14;;;;;;;10.48;5.18;;;;;;;11.22;95.37;101576.09;5086247;28;20278;-79
2022/10/08 03:21:41;;;;;;;10.40;4.35;;;;;;;11.28;94.80;101572.25;5066731;28;20501;-79
2022/10/08 03:24:12;;;;;;;9.05;4.50;;;;;;;11.17;95.28;101568.66;5078050;28;20024;-79
2022/10/08 03:26:38;;;;;;;10.00;5.38;;;;;;;11.15;95.13;101575.72;5073419;28;20884;-79
2022/10/08 03:29:05;;;;;;;10.38;5.53;;;;;;;10.97;95.71;101582.25;5083882;28;20050;-79
2022/10/08 03:31:32;;;;;;;11.18;6.18;;;;;;;10.99;95.90;101590.72;5085590;28;20023;-81
2022/10/08 03:33:58;;;;;;;13.47;4.90;;;;;;;11.03;96.21;101587.00;5079553;28;20024;-79
2022/10/08 03:36:24;;;;;;;10.73;5.90;;;;;;;10.99;95.05;101588.13;5064963;28;20304;-79
2022/10/08 03:38:50;;;;;;;8.10;4.90;;;;;;;11.00;95.72;101582.00;5066191;28;20024;-79
2022/10/08 03:41:17;;;;;;;9.90;5.22;;;;;;;10.99;95.37;101585.53;5085967;28;20385;-79
2022/10/08 03:43:43;;;;;;;11.73;5.65;;;;;;;10.93;95.80;101593.75;5080290;28;20024;-79
2022/10/08 03:46:10;;;;;;;10.23;5.85;;;;;;;10.84;95.72;101602.22;5079159;28;20476;-79
2022/10/08 03:48:36;;;;;;;10.55;5.32;;;;;;;10.90;94.86;101597.41;5085601;28;20055;-79
2022/10/08 03:51:06;;;;;;;10.95;4.65;;;;;;;10.91;95.23;101608.63;5067086;28;20430;-80
2022/10/08 03:53:37;;;;;;;11.05;4.45;;;;;;;10.89;95.75;101605.28;5076640;28;20032;-79
2022/10/08 03:56:07;;;;;;;9.48;4.57;;;;;;;10.80;95.34;101592.97;5073634;28;20062;-79
2022/10/08 03:58:33;;;;;;;10.90;5.40;;;;;;;10.72;95.38;101605.66;5068238;28;20111;-79
2022/10/08 04:01:14;;;;;;;9.45;4.43;;;;;;;10.71;95.13;101596.22;5087775;28;20153;-78
2022/10/08 04:03:39;;;;;;;8.70;4.18;;;;;;;10.75;94.93;101605.44;5069445;28;20046;-80
2022/10/08 04:06:05;;;;;;;10.38;4.85;;;;;;;10.69;96.05;101608.47;5077331;28;20220;-79
2022/10/08 04:08:32;;;;;;;10.45;5.10;;;;;;;10.62;96.29;101603.72;5089443;28;20046;-81
2022/10/08 04:11:01;;;;;;;10.10;4.55;;;;;;;10.74;95.46;101621.97;5086736;28;20419;-79
2022/10/08 04:13:27;;;;;;;8.88;4.78;;;;;;;10.49;96.12;101597.69;5079615;28;20067;-79
2022/10/08 04:15:52;;;;;;;9.75;4.47;;;;;;;10.66;95.71;101619.03;5074989;28;20055;-80
2022/10/08 04:18:20;;;;;;;7.47;3.53;;;;;;;10.63;95.66;101602.78;5085918;28;20028;-81
2022/10/08 04:20:45;;;;;;;8.40;3.90;;;;;;;10.67;94.56;101605.13;5073399;28;20028;-80
2022/10/08 04:23:10;;;;;;;10.73;3.67;;;;;;;10.70;95.24;101615.31;5070530;28;20028;-79
2022/10/08 04:25:36;;;;;;;7.22;3.47;;;;;;;10.68;95.46;101622.38;5071477;28;20036;-79
2022/10/08 04:28:02;;;;;;;11.73;3.92;;;;;;;10.73;95.88;101622.91;5089136;28;20059;-82
2022/10/08 04:30:29;;;;;;;6.95;3.40;;;;;;;10.69;95.30;101618.84;5088716;28;20024;-79
2022/10/08 04:32:55;;;;;;;9.55;3.85;;;;;;;10.58;95.43;101612.63;5088914;28;20024;-79
2022/10/08 04:35:20;;;;;;;9.40;4.10;;;;;;;10.47;96.01;101622.91;5070935;28;20024;-80
2022/10/08 04:37:45;;;;;;;7.97;3.78;;;;;;;10.50;95.72;101629.66;5082629;28;20368;-80
2022/10/08 04:40:11;;;;;;;10.30;4.43;;;;;;;10.49;96.96;101628.81;5069074;28;20059;-80
2022/10/08 04:42:36;;;;;;;8.68;3.42;;;;;;;10.56;96.53;101630.06;5079191;28;20052;-79
2022/10/08 04:45:01;;;;;;;11.45;3.92;;;;;;;10.54;96.00;101636.28;5063612;28;20124;-79
2022/10/08 04:47:27;;;;;;;8.35;3.28;;;;;;;10.50;96.25;101630.50;5079974;28;20372;-79
2022/10/08 04:49:52;;;;;;;9.73;3.70;;;;;;;10.20;96.47;101580.66;5070462;28;20483;-79
2022/10/08 04:52:19;;;;;;;7.60;3.42;;;;;;;10.47;96.00;101624.69;5062360;28;20043;-79
2022/10/08 04:54:44;;;;;;;5.97;2.95;;;;;;;10.53;96.36;101640.66;5070208;28;20472;-80
2022/10/08 04:57:10;;;;;;;8.18;3.70;;;;;;;10.45;96.25;101642.13;5070560;28;20409;-79
2022/10/08 04:59:35;;;;;;;8.70;3.58;;;;;;;10.46;96.02;101643.78;5071597;28;20059;-80
2022/10/08 05:02:01;;;;;;;7.20;4.15;;;;;;;10.42;95.85;101647.50;5080036;28;20032;-79
2022/10/08 05:04:26;;;;;;;8.45;4.45;;;;;;;10.33;96.92;101643.78;5089863;28;20102;-78
2022/10/08 05:06:51;;;;;;;9.50;4.03;;;;;;;10.40;96.47;101650.19;5068863;28;20070;-79
2022/10/08 05:09:17;;;;;;;9.15;5.45;;;;;;;10.28;96.42;101651.03;5088672;28;20077;-79
2022/10/08 05:11:42;;;;;;;10.43;5.28;;;;;;;10.28;96.97;101643.25;5071127;28;20510;-79
2022/10/08 05:14:10;;;;;;;8.35;5.47;;;;;;;10.36;97.56;101664.31;5084595;28;20477;-79
2022/10/08 05:16:36;;;;;;;8.30;5.15;;;;;;;10.34;96.86;101661.00;5068139;28;20031;-79
2022/10/08 05:19:02;;;;;;;12.27;6.88;;;;;;;10.24;97.36;101659.94;5071740;28;20020;-79
2022/10/08 05:21:30;;;;;;;14.02;7.70;;;;;;;10.20;97.80;101659.28;5088524;28;20527;-79
2022/10/08 05:24:01;;;;;;;11.77;6.80;;;;;;;10.38;97.47;101678.00;5065495;28;20115;-79
2022/10/08 05:26:30;;;;;;;10.73;6.85;;;;;;;10.30;97.17;101667.31;5065031;28;20032;-79
2022/10/08 05:28:57;;;;;;;12.43;6.80;;;;;;;10.33;97.67;101677.50;5088370;28;20024;-80
2022/10/08 05:31:24;;;;;;;14.57;9.88;;;;;;;10.34;97.47;101676.56;5068924;28;20467;-79
2022/10/08 05:33:50;;;;;;;13.75;11.27;;;;;;;10.20;97.49;101668.81;5067360;28;20029;-79
2022/10/08 05:36:28;;;;;;;12.07;9.07;;;;;;;10.29;98.42;101678.63;5083251;28;20039;-79
2022/10/08 05:38:55;;;;;;;14.52;9.48;;;;;;;10.26;98.66;101684.00;5078122;28;20547;-79
2022/10/08 05:41:23;;;;;;;15.65;9.88;;;;;;;10.30;98.39;101690.66;5084761;28;20034;-79
2022/10/08 05:43:49;;;;;;;12.57;8.23;;;;;;;10.38;98.26;101701.34;5067267;28;20028;-78
2022/10/08 05:46:16;;;;;;;18.70;14.05;;;;;;;10.26;98.71;101696.94;5085205;28;20336;-79
2022/10/08 05:48:42;;;;;;;14.80;9.43;;;;;;;10.25;99.15;101697.91;5088087;28;20275;-79
2022/10/08 05:51:13;;;;;;;15.23;10.25;;;;;;;10.27;98.97;101696.88;5069180;28;20395;-79
2022/10/08 05:53:41;;;;;;;16.67;10.45;;;;;;;10.31;98.99;101703.50;5088160;28;20463;-79
2022/10/08 05:56:09;;;;;;;15.05;10.77;;;;;;;10.35;98.91;101711.91;5084441;28;20020;-79
2022/10/08 05:58:38;;;;;;;14.50;9.82;;;;;;;10.39;99.08;101705.59;5069343;28;20141;-79
2022/10/08 06:01:04;;;;;;;;;;;;;;;10.46;98.02;101717.22;5070243;28;20039;-79
2022/10/08 06:03:30;;;;;;;20.00;12.52;;;;;;;10.30;98.92;101711.38;5087333;28;19935;-79
2022/10/08 06:06:04;;;;;;;15.68;10.63;;;;;;;10.33;98.96;101716.38;5068482;28;20031;-80
2022/10/08 06:08:30;;;;;;;16.83;12.23;;;;;;;10.40;98.49;101733.19;5087195;28;20016;-78
2022/10/08 06:10:56;;;;;;;17.13;11.38;;;;;;;10.40;99.08;101735.78;5079682;28;20026;-80
2022/10/08 06:13:22;;;;;;;16.65;11.05;;;;;;;10.43;98.09;101740.75;5068836;28;20031;-79
2022/10/08 06:16:00;;;;;;;16.85;10.35;;;;;;;10.33;98.92;101724.16;5086162;28;20027;-79
2022/10/08 06:18:27;;;;;;;17.90;10.43;;;;;;;10.41;98.89;101750.41;5068640;28;20055;-79
2022/10/08 06:20:53;;;;;;;21.25;14.82;;;;;;;10.27;99.16;101747.91;5082297;28;20103;-79
2022/10/08 06:23:19;;;;;;;17.17;11.38;;;;;;;10.36;98.56;101757.66;5062855;28;20127;-79
2022/10/08 06:25:45;;;;;;;17.27;11.95;;;;;;;10.40;98.73;101769.50;5083642;28;20127;-79
2022/10/08 06:28:11;;;;;;;18.52;12.90;;;;;;;10.34;98.77;101764.72;5082980;28;20131;-80
2022/10/08 06:30:39;;;;;;;16.48;11.30;;;;;;;10.34;98.96;101762.13;5079755;28;20524;-79
2022/10/08 06:33:04;;;;;;;19.33;12.87;;;;;;;10.34;98.95;101775.91;5085016;28;20032;-80
2022/10/08 06:35:29;;;;;;;18.70;12.73;;;;;;;10.27;98.96;101763.47;5074770;28;20036;-79
2022/10/08 06:37:55;;;;;;;16.80;12.52;;;;;;;10.17;98.81;101757.16;5073615;28;20049;-80
2022/10/08 06:40:20;;;;;;;21.05;14.48;;;;;;;10.19;98.81;101765.66;5078016;28;20028;-79
2022/10/08 06:42:46;;;;;;;17.92;14.13;;;;;;;10.31;99.09;101796.00;5086522;28;20367;-79
2022/10/08 06:45:11;;;;;;;17.08;11.35;;;;;;;10.33;98.97;101804.53;5082523;28;20071;-79
2022/10/08 06:47:37;;;;;;;17.52;11.00;;;;;;;10.31;98.35;101808.97;5079094;28;20440;-79
2022/10/08 06:50:02;;;;;;;14.43;10.98;;;;;;;10.29;99.03;101808.25;5075482;28;20020;-79
2022/10/08 06:52:28;;;;;;;16.00;11.00;;;;;;;10.26;98.81;101798.06;5085661;28;20487;-79
2022/10/08 06:54:53;;;;;;;16.73;9.80;;;;;;;10.31;98.55;101796.00;5077526;28;20574;-79
2022/10/08 06:57:18;;;;;;;15.65;9.82;;;;;;;10.37;98.55;101817.19;5082321;28;20421;-79
2022/10/08 06:59:44;;;;;;;15.18;8.88;;;;;;;10.42;98.43;101824.69;5064047;28;20020;-79
2022/10/08 07:02:10;;;;;;;18.95;13.23;;;;;;;10.39;99.72;101830.09;5079508;28;20020;-79
2022/10/08 07:04:35;;;;;;;16.70;10.27;;;;;;;10.39;99.73;101814.53;5078493;28;20115;-79
2022/10/08 07:07:00;;;;;;;16.35;10.70;;;;;;;10.35;99.10;101813.03;5063724;28;20460;-79
2022/10/08 07:09:26;;;;;;;15.20;12.43;;;;;;;10.41;99.30;101830.81;5081656;28;20028;-78
2022/10/08 07:11:51;;;;;;;14.73;9.35;;;;;;;10.46;98.65;101826.16;5073624;28;20051;-79
2022/10/08 07:14:17;;;;;;;15.05;9.90;;;;;;;10.52;99.37;101846.50;5085996;28;20386;-78
2022/10/08 07:16:42;;;;;;;15.35;9.45;;;;;;;10.47;98.64;101827.81;5074754;28;20115;-79
2022/10/08 07:19:07;;;;;;;18.48;10.60;;;;;;;10.55;99.72;101846.31;5065068;28;20075;-79
2022/10/08 07:21:33;;;;;;;15.40;8.25;;;;;;;10.53;99.03;101837.78;5076728;28;20063;-79
2022/10/08 07:24:00;;;;;;;14.88;10.32;;;;;;;10.67;98.68;101859.38;5065716;28;20062;-79
2022/10/08 07:26:28;;;;;;;16.00;10.60;;;;;;;10.66;99.01;101863.75;5085589;28;20066;-79
2022/10/08 07:29:07;;;;;;;13.85;8.70;;;;;;;10.70;99.50;101864.38;5085024;28;20016;-79
2022/10/08 07:31:37;;;;;;;12.68;7.38;;;;;;;10.67;99.21;101849.00;5083373;28;20032;-79
2022/10/08 07:34:05;;;;;;;14.73;7.65;;;;;;;10.78;98.57;101860.38;5069472;28;20028;-79
2022/10/08 07:36:31;;;;;;;;;;;;;;;10.92;97.58;101875.03;5074959;28;20028;-80
2022/10/08 07:39:26;;;;;;;14.95;7.25;;;;;;;10.94;97.99;101880.94;5065972;28;19994;-79
2022/10/08 07:41:52;;;;;;;11.98;6.80;;;;;;;10.94;97.86;101883.53;5057383;28;20424;-79
2022/10/08 07:44:17;;;;;;;15.10;8.18;;;;;;;11.01;97.82;101890.00;5067311;28;20028;-79
2022/10/08 07:46:46;;;;;;;11.15;6.78;;;;;;;11.07;98.19;101894.78;5079804;28;20087;-79
2022/10/08 07:49:12;;;;;;;15.65;7.88;;;;;;;11.09;97.56;101887.72;5072784;28;20028;-79
2022/10/08 07:51:37;;;;;;;10.25;5.35;;;;;;;11.13;97.05;101884.00;5082639;28;20028;-79
2022/10/08 07:54:05;;;;;;;14.73;6.20;;;;;;;11.25;97.20;101886.69;5063885;28;20517;-79
2022/10/08 07:56:31;;;;;;;15.48;6.57;;;;;;;11.27;96.51;101897.78;5080085;28;20039;-81
2022/10/08 07:58:58;;;;;;;11.48;3.92;;;;;;;11.31;96.02;101891.47;5085244;28;20054;-80
2022/10/08 08:01:28;;;;;;;10.80;4.72;;;;;;;11.40;95.94;101903.81;5083302;28;20047;-79
2022/10/08 08:04:00;;;;;;;9.65;4.15;;;;;;;11.47;95.27;101902.50;5082099;28;20403;-81
2022/10/08 08:06:27;;;;;;;9.45;3.85;;;;;;;11.38;94.10;101893.53;5080189;28;20024;-79
2022/10/08 08:08:52;;;;;;;10.23;3.47;;;;;;;11.57;94.05;101913.06;5079437;28;20027;-79
2022/10/08 08:11:21;;;;;;;7.95;3.33;;;;;;;11.63;93.03;101913.47;5078989;28;20020;-80
2022/10/08 08:13:46;;;;;;;;;;;;;;;11.75;93.59;101916.16;5063929;28;20111;-79
2022/10/08 08:16:17;;;;;;;6.85;2.60;;;;;;;11.75;92.38;101921.38;5081309;28;20041;-81
2022/10/08 08:18:45;;;;;;;6.97;2.35;;;;;;;11.81;91.94;101926.13;5065917;28;20056;-79
2022/10/08 08:21:16;;;;;;;8.82;2.65;;;;;;;11.87;91.66;101936.13;5075630;28;20028;-80
2022/10/08 08:23:47;;;;;;;8.95;2.70;;;;;;;11.92;91.92;101928.84;5073667;28;20103;-79
2022/10/08 08:26:20;;;;;;;9.05;2.78;;;;;;;12.01;90.47;101943.00;5085310;28;20372;-78
2022/10/08 08:28:53;;;;;;;9.77;2.13;;;;;;;12.09;90.16;101941.50;5077093;28;20028;-79
2022/10/08 08:31:42;;;;;;;10.35;2.63;;;;;;;12.11;89.53;101939.66;5081271;28;20021;-82
2022/10/08 08:34:12;;;;;;;4.63;1.42;;;;;;;12.08;87.02;101939.84;5054117;28;20038;-79
2022/10/08 08:36:40;;;;;;;10.60;2.40;;;;;;;12.26;87.69;101962.91;5082507;28;20070;-80
2022/10/08 08:39:12;;;;;;;5.95;1.80;;;;;;;12.28;85.92;101963.66;5066897;28;20020;-79
2022/10/08 08:41:53;;;;;;;8.48;2.00;;;;;;;12.31;87.07;101976.41;5057650;28;20032;-79
2022/10/08 08:44:28;;;;;;;8.90;1.98;;;;;;;12.32;85.89;101959.88;5061911;28;20032;-80
2022/10/08 08:47:18;;;;;;;7.70;2.08;;;;;;;12.40;83.87;101981.00;5085081;28;20559;-79
2022/10/08 08:49:52;;;;;;;10.27;1.83;;;;;;;12.40;85.23;101967.97;5070335;28;20028;-79
2022/10/08 08:52:24;;;;;;;7.18;1.70;;;;;;;12.49;82.87;101975.09;5077617;28;20055;-80
2022/10/08 08:54:52;;;;;;;8.20;1.50;;;;;;;12.51;83.37;101983.66;5083305;28;20066;-80
2022/10/08 08:57:37;;;;;;;5.65;1.58;;;;;;;12.58;82.28;101984.03;5069888;28;20024;-80
2022/10/08 09:00:12;;;;;;;7.80;1.77;;;;;;;12.65;82.39;101990.47;5080823;28;20065;-80
2022/10/08 09:02:51;;;;;;;6.60;1.63;;;;;;;12.65;79.51;101999.09;5089022;28;20054;-79
2022/10/08 09:05:18;;;;;;;7.72;2.05;;;;;;;12.61;77.86;101995.06;5080889;28;20036;-79
2022/10/08 09:07:50;;;;;;;8.60;1.73;;;;;;;12.59;78.39;101996.94;5083070;28;20069;-80
2022/10/08 09:10:23;;;;;;;8.77;1.88;;;;;;;12.67;78.71;102009.41;5084240;28;20032;-79
2022/10/08 09:12:52;;;;;;;8.32;1.80;;;;;;;12.71;78.50;102003.03;5088942;28;20028;-80
2022/10/08 09:15:31;;;;;;;8.27;1.45;;;;;;;12.69;77.63;101992.75;5086001;28;20032;-79
2022/10/08 09:18:02;;;;;;;8.93;1.90;;;;;;;12.72;77.86;102008.13;5076640;28;20465;-79
2022/10/08 09:20:29;;;;;;;5.72;1.58;;;;;;;12.71;75.62;102001.25;5067684;28;20066;-79
2022/10/08 09:22:54;;;;;;;6.15;1.58;;;;;;;12.90;77.34;102015.56;5060762;28;20078;-79
2022/10/08 09:25:25;;;;;;;8.27;1.85;;;;;;;13.00;76.08;102006.13;5078417;28;20067;-79
2022/10/08 09:27:59;;;;;;;7.43;1.95;;;;;;;13.04;76.28;102025.81;5084238;28;20390;-78
2022/10/08 09:30:29;;;;;;;9.60;1.88;;;;;;;13.01;76.32;102007.78;5083754;28;20604;-78
2022/10/08 09:33:00;;;;;;;7.55;1.65;;;;;;;12.94;74.93;102022.22;5080874;28;20118;-79
2022/10/08 09:35:25;;;;;;;6.78;1.50;;;;;;;13.02;74.78;102030.31;5064194;28;20074;-78
2022/10/08 09:37:52;;;;;;;10.20;1.70;;;;;;;13.09;74.59;102036.72;5080591;28;20036;-79
2022/10/08 09:40:26;;;;;;;8.23;1.58;;;;;;;13.20;75.38;102039.38;5078120;28;20460;-79
2022/10/08 09:43:16;;;;;;;7.22;1.77;;;;;;;13.25;74.80;102033.88;5061345;28;20066;-78
2022/10/08 09:45:44;;;;;;;8.93;1.90;;;;;;;13.32;75.23;102042.91;5060517;28;20032;-79
2022/10/08 09:48:16;;;;;;;;;;;;;;;13.46;77.03;102049.69;5078599;28;20024;-79
2022/10/08 09:50:52;;;;;;;8.45;2.05;;;;;;;13.41;74.28;102041.38;5075837;28;19912;-79
2022/10/08 09:53:19;;;;;;;7.30;1.58;;;;;;;13.53;73.41;102050.88;5083797;28;20031;-80
2022/10/08 09:55:53;;;;;;;7.85;1.50;;;;;;;13.67;73.61;102063.72;5083271;28;20042;-79
2022/10/08 09:58:19;;;;;;;7.97;1.80;;;;;;;13.65;72.24;102049.13;5074017;28;20103;-78
2022/10/08 10:00:55;;;;;;;6.00;1.60;;;;;;;13.76;73.04;102055.22;5068498;28;20024;-78
2022/10/08 10:03:21;;;;;;;6.88;1.67;;;;;;;13.78;70.45;102050.72;5079604;28;20449;-79
2022/10/08 10:05:51;;;;;;;6.75;1.60;;;;;;;13.75;70.53;102058.75;5078514;28;20031;-79
2022/10/08 10:08:45;;;;;;;7.05;1.75;;;;;;;13.94;71.58;102073.03;5083717;28;20038;-79
2022/10/08 10:11:18;;;;;;;7.47;1.70;;;;;;;13.95;71.07;102061.66;5072470;28;20032;-79
2022/10/08 10:13:47;;;;;;;8.15;1.50;;;;;;;14.02;69.80;102063.66;5075515;28;20020;-79
2022/10/08 10:16:33;;;;;;;7.22;1.60;;;;;;;14.35;71.83;102073.28;5077328;28;20463;-79
2022/10/08 10:19:31;;;;;;;7.90;1.80;;;;;;;14.33;70.11;102072.56;5086202;28;20066;-79
2022/10/08 10:22:12;;;;;;;8.68;1.85;;;;;;;14.29;69.74;102065.13;5063296;28;20423;-79
2022/10/08 10:24:47;;;;;;;7.32;1.52;;;;;;;14.39;68.58;102081.69;5078832;28;20027;-79
2022/10/08 10:27:24;;;;;;;7.10;1.75;;;;;;;14.44;67.13;102079.56;5083768;28;20074;-79
2022/10/08 10:30:13;;;;;;;5.95;1.38;;;;;;;14.49;68.32;102084.47;5058669;28;20031;-78
2022/10/08 10:32:43;;;;;;;6.85;1.48;;;;;;;14.49;67.71;102076.63;5064562;28;20028;-80
2022/10/08 10:35:19;;;;;;;6.47;1.77;;;;;;;14.64;68.88;102085.88;5079517;28;20030;-80
2022/10/08 10:38:22;;;;;;;7.97;1.65;;;;;;;14.72;68.13;102078.25;5077354;28;20048;-79
2022/10/08 10:40:54;;;;;;;7.30;1.80;;;;;;;14.77;66.80;102076.13;5072785;28;20028;-80
2022/10/08 10:43:59;;;;;;;6.10;1.70;;;;;;;14.87;67.12;102065.78;5073291;28;20363;-78
2022/10/08 10:46:43;;;;;;;6.22;1.58;;;;;;;14.97;66.53;102078.94;5079747;28;20028;-79
2022/10/08 10:49:13;;;;;;;7.53;1.50;;;;;;;15.01;65.86;102093.41;5074189;28;20032;-79
2022/10/08 10:51:38;;;;;;;7.53;1.50;;;;;;;15.10;65.76;102087.44;5070898;28;20112;-79
2022/10/08 10:54:23;;;;;;;6.03;1.60;;;;;;;14.97;65.88;102092.00;5070337;28;20441;-78
2022/10/08 10:56:56;;;;;;;7.43;1.35;;;;;;;14.91;65.88;102088.09;5063097;28;20297;-79
2022/10/08 10:59:27;;;;;;;6.25;1.38;;;;;;;14.97;65.38;102092.00;5074455;28;20033;-82
2022/10/08 11:02:02;;;;;;;6.20;1.50;;;;;;;15.07;65.09;102092.91;5055411;28;20115;-78
2022/10/08 11:04:43;;;;;;;8.32;1.70;;;;;;;15.01;65.16;102081.16;5071804;28;20067;-79
2022/10/08 11:07:23;;;;;;;7.78;1.75;;;;;;;15.04;65.98;102082.72;5071028;28;20031;-79
2022/10/08 11:10:28;;;;;;;7.28;1.77;;;;;;;15.20;67.33;102098.81;5070173;28;20042;-79
2022/10/08 11:13:05;;;;;;;9.00;1.63;;;;;;;15.08;64.71;102094.56;5062909;28;20037;-79
2022/10/08 11:16:13;;;;;;;6.25;1.30;;;;;;;15.05;65.25;102111.31;5069007;28;20070;-79
2022/10/08 11:18:51;;;;;;;6.85;1.52;;;;;;;14.98;65.22;102109.34;5040007;28;20497;-79
2022/10/08 11:21:22;;;;;;;5.75;1.30;;;;;;;14.71;64.42;102110.56;5038215;28;20045;-79
2022/10/08 11:24:41;;;;;;;7.13;1.52;;;;;;;14.72;65.38;102120.03;5044012;28;20029;-78
2022/10/08 11:27:15;;;;;;;8.00;1.40;;;;;;;14.69;64.42;102109.84;4988013;28;20049;-79
2022/10/08 11:29:46;;;;;;;5.45;1.40;;;;;;;14.84;65.77;102113.84;4988602;28;20352;-79
2022/10/08 11:32:15;;;;;;;6.32;1.33;;;;;;;14.85;63.96;102097.25;4986962;28;20441;-79
2022/10/08 11:34:52;;;;;;;8.48;1.88;;;;;;;14.97;62.89;102113.72;4986285;28;20038;-80
2022/10/08 11:37:49;;;;;;;6.70;1.80;;;;;;;15.19;63.69;102106.75;4982308;28;20050;-79
2022/10/08 11:40:27;;;;;;;5.82;1.45;;;;;;;15.10;63.75;102114.41;4981443;28;20042;-79